Time;durP1;ratioP1;P1;durP2;ratioP2;P2;SDS_P1;SDS_P2;PMS_P1;PMS_P2;Temp;Humidity;BMP_temperature;BMP_pressure;BME280_temperature;BME280_humidity;BME280_pressure;Samples;Min_cycle;Max_cycle;Signal;HPM_P1;HPM_P2
2022/08/14 14:29:21;;;;;;;3.93;3.60;;;;;;;;;;4915809;29;20591;-75
2022/08/14 14:31:49;;;;;;;3.93;3.63;;;;;;;;;;4920535;29;20455;-76
2022/08/14 14:34:18;;;;;;;3.90;3.60;;;;;;;;;;4925552;29;20557;-75
2022/08/14 14:36:45;;;;;;;3.87;3.57;;;;;;;;;;4953889;29;20453;-74
2022/08/14 14:39:13;;;;;;;4.23;3.70;;;;;;;;;;4936961;29;20946;-74
2022/08/14 14:41:41;;;;;;;3.70;3.30;;;;;;;;;;4953864;29;20449;-74
2022/08/14 14:44:10;;;;;;;3.63;3.33;;;;;;;;;;4954263;29;20649;-80
2022/08/14 14:46:42;;;;;;;4.27;3.87;;;;;;;;;;4926707;29;20983;-76
2022/08/14 14:49:12;;;;;;;3.97;3.27;;;;;;;;;;4936473;29;20451;-78
2022/08/14 14:51:40;;;;;;;3.40;3.10;;;;;;;;;;4938376;29;20983;-78
2022/08/14 14:54:08;;;;;;;3.33;3.13;;;;;;;;;;4921356;29;20438;-75
2022/08/14 14:56:35;;;;;;;3.00;2.80;;;;;;;;;;4945570;29;20441;-76
2022/08/14 14:59:02;;;;;;;3.13;2.93;;;;;;;;;;4936371;29;20450;-81
2022/08/14 15:01:30;;;;;;;3.70;3.20;;;;;;;;;;4953288;29;20505;-79
2022/08/14 15:03:59;;;;;;;3.83;3.50;;;;;;;;;;4953716;29;20442;-76
2022/08/14 15:06:27;;;;;;;3.80;3.50;;;;;;;;;;4953925;29;20469;-76
2022/08/14 15:08:54;;;;;;;3.70;3.43;;;;;;;;;;4942138;29;20498;-74
2022/08/14 15:11:22;;;;;;;3.50;3.20;;;;;;;;;;4936405;29;20451;-77
2022/08/14 15:13:49;;;;;;;4.17;3.77;;;;;;;;;;4920689;29;20454;-73
2022/08/14 15:16:17;;;;;;;3.60;3.30;;;;;;;;;;4937439;29;20545;-74
2022/08/14 15:18:45;;;;;;;3.40;3.10;;;;;;;;;;4936349;29;20478;-74
2022/08/14 15:21:14;;;;;;;4.27;3.97;;;;;;;;;;4934099;29;20466;-75
2022/08/14 15:23:41;;;;;;;4.00;3.70;;;;;;;;;;4916995;29;20455;-74
2022/08/14 15:26:11;;;;;;;3.67;3.43;;;;;;;;;;4933993;29;20537;-78
2022/08/14 15:28:40;;;;;;;3.97;3.67;;;;;;;;;;4934272;29;20846;-76
2022/08/14 15:31:07;;;;;;;4.13;3.83;;;;;;;;;;4948495;29;20883;-74
2022/08/14 15:36:17;;;;;;;3.27;3.03;;;;;;;;;;4944727;29;20516;-75
2022/08/14 15:38:45;;;;;;;3.90;3.60;;;;;;;;;;4939020;29;20435;-75
2022/08/14 15:41:12;;;;;;;3.60;3.30;;;;;;;;;;4947639;29;20459;-75
2022/08/14 15:43:40;;;;;;;6.60;3.80;;;;;;;;;;4953109;29;20545;-74
2022/08/14 15:46:08;;;;;;;4.03;3.73;;;;;;;;;;4953126;29;20465;-74
2022/08/14 15:48:36;;;;;;;3.80;3.40;;;;;;;;;;4936234;29;20489;-74
2022/08/14 15:51:03;;;;;;;4.30;3.90;;;;;;;;;;4953214;29;20449;-74
2022/08/14 15:53:32;;;;;;;3.97;3.67;;;;;;;;;;4921148;29;20458;-75
2022/08/14 15:55:59;;;;;;;3.70;3.40;;;;;;;;;;4935948;29;20502;-73
2022/08/14 15:58:27;;;;;;;4.30;3.90;;;;;;;;;;4935882;29;20441;-74
2022/08/14 16:03:36;;;;;;;3.90;3.60;;;;;;;;;;4936704;29;20439;-75
2022/08/14 16:06:03;;;;;;;3.73;3.43;;;;;;;;;;4936855;29;20467;-74
2022/08/14 16:08:32;;;;;;;4.30;3.90;;;;;;;;;;4937417;29;20861;-74
2022/08/14 16:11:00;;;;;;;4.10;3.80;;;;;;;;;;4937856;29;20454;-72
2022/08/14 16:13:29;;;;;;;3.87;3.57;;;;;;;;;;4937089;29;20446;-73
2022/08/14 16:15:56;;;;;;;3.67;3.40;;;;;;;;;;4958182;29;20468;-74
2022/08/14 16:18:24;;;;;;;4.10;3.80;;;;;;;;;;4958299;29;20544;-73
2022/08/14 16:20:55;;;;;;;3.67;3.43;;;;;;;;;;4928689;29;20962;-74
2022/08/14 16:23:23;;;;;;;4.00;3.70;;;;;;;;;;4941276;29;20438;-73
2022/08/14 16:25:52;;;;;;;3.80;3.50;;;;;;;;;;4937444;29;20465;-72
2022/08/14 16:28:21;;;;;;;3.40;3.10;;;;;;;;;;4936501;29;20482;-73
2022/08/14 16:30:50;;;;;;;4.00;3.70;;;;;;;;;;4936805;29;20863;-73
2022/08/14 16:33:19;;;;;;;3.80;3.60;;;;;;;;;;4937320;29;20493;-73
2022/08/14 16:35:47;;;;;;;3.83;3.53;;;;;;;;;;4936453;29;20871;-74
2022/08/14 16:38:15;;;;;;;3.93;3.63;;;;;;;;;;4939051;29;20498;-74
2022/08/14 16:40:43;;;;;;;4.10;3.77;;;;;;;;;;4939021;29;20458;-76
2022/08/14 16:43:12;;;;;;;3.60;3.40;;;;;;;;;;4940393;29;22296;-73
2022/08/14 16:45:39;;;;;;;3.97;3.67;;;;;;;;;;4940866;29;20454;-74
2022/08/14 16:48:08;;;;;;;4.23;3.93;;;;;;;;;;4954912;29;20576;-74
2022/08/14 16:50:36;;;;;;;4.30;3.90;;;;;;;;;;4955567;29;20446;-75
2022/08/14 16:53:03;;;;;;;4.37;3.97;;;;;;;;;;4956113;29;20453;-74
2022/08/14 16:55:30;;;;;;;4.40;4.00;;;;;;;;;;4956089;29;20468;-73
2022/08/14 16:57:58;;;;;;;4.40;4.00;;;;;;;;;;4955169;29;20736;-73
2022/08/14 17:00:28;;;;;;;3.70;3.40;;;;;;;;;;4957827;29;20525;-73
2022/08/14 17:03:00;;;;;;;4.13;3.83;;;;;;;;;;4940855;29;20541;-74
2022/08/14 17:05:28;;;;;;;5.33;4.47;;;;;;;;;;4941746;29;20951;-73
2022/08/14 17:08:08;;;;;;;4.17;3.77;;;;;;;;;;4940407;29;20492;-74
2022/08/14 17:10:36;;;;;;;4.50;4.17;;;;;;;;;;4954571;29;20859;-74
2022/08/14 17:13:16;;;;;;;4.60;4.30;;;;;;;;;;4936972;29;20445;-73
2022/08/14 17:16:04;;;;;;;4.73;4.43;;;;;;;;;;4955461;29;20469;-73
2022/08/14 17:18:40;;;;;;;4.10;3.80;;;;;;;;;;4938641;29;20456;-75
2022/08/14 17:21:16;;;;;;;4.70;3.97;;;;;;;;;;4945451;29;20498;-72
2022/08/14 17:23:43;;;;;;;4.20;3.90;;;;;;;;;;4938186;29;20486;-71
2022/08/14 17:26:30;;;;;;;4.43;4.13;;;;;;;;;;4938941;29;20462;-74
2022/08/14 17:29:04;;;;;;;4.60;4.20;;;;;;;;;;4939714;29;20974;-74
2022/08/14 17:31:33;;;;;;;5.03;4.63;;;;;;;;;;4946816;29;21340;-74
2022/08/14 17:34:01;;;;;;;7.27;5.27;;;;;;;;;;4937975;29;20448;-74
2022/08/14 17:36:30;;;;;;;5.13;4.73;;;;;;;;;;4954733;29;20464;-74
2022/08/14 17:39:01;;;;;;;4.97;4.57;;;;;;;;;;4937959;29;20536;-75
2022/08/14 17:41:28;;;;;;;4.67;4.27;;;;;;;;;;4955224;29;20481;-77
2022/08/14 17:43:56;;;;;;;3.93;3.63;;;;;;;;;;4938522;29;20468;-77
2022/08/14 17:46:39;;;;;;;4.00;3.70;;;;;;;;;;4939971;29;20508;-77
2022/08/14 17:49:09;;;;;;;4.00;3.60;;;;;;;;;;4935047;29;20514;-74
2022/08/14 17:51:36;;;;;;;5.00;4.50;;;;;;;;;;4923038;29;20957;-74
2022/08/14 17:54:04;;;;;;;4.70;4.30;;;;;;;;;;4934391;29;20454;-74
2022/08/14 17:56:32;;;;;;;4.17;3.87;;;;;;;;;;4934741;29;20549;-74
2022/08/14 17:59:02;;;;;;;4.60;4.20;;;;;;;;;;4934401;29;21141;-74
2022/08/14 18:01:29;;;;;;;4.57;4.17;;;;;;;;;;4918383;29;20448;-74
2022/08/14 18:04:01;;;;;;;4.97;4.57;;;;;;;;;;4935128;29;20497;-78
2022/08/14 18:06:30;;;;;;;5.50;5.00;;;;;;;;;;4939412;29;20589;-73
2022/08/14 18:08:58;;;;;;;4.70;4.30;;;;;;;;;;4939036;29;20483;-75
2022/08/14 18:11:26;;;;;;;5.93;5.17;;;;;;;;;;4933290;29;20453;-75
2022/08/14 18:13:59;;;;;;;5.13;4.73;;;;;;;;;;4934855;29;20962;-74
2022/08/14 18:16:27;;;;;;;6.37;5.27;;;;;;;;;;4934636;29;20981;-74
2022/08/14 18:18:55;;;;;;;7.73;5.10;;;;;;;;;;4935435;29;20450;-74
2022/08/14 18:21:22;;;;;;;4.97;4.57;;;;;;;;;;4935036;29;20955;-73
2022/08/14 18:23:51;;;;;;;5.70;5.20;;;;;;;;;;4935928;29;20458;-72
2022/08/14 18:26:18;;;;;;;7.40;5.53;;;;;;;;;;4937066;29;20553;-73
2022/08/14 18:28:45;;;;;;;6.00;5.40;;;;;;;;;;4934719;29;20491;-73
2022/08/14 18:31:27;;;;;;;5.67;5.17;;;;;;;;;;4939050;29;20437;-72
2022/08/14 18:33:57;;;;;;;6.10;5.50;;;;;;;;;;4925395;29;20823;-75
2022/08/14 18:36:39;;;;;;;5.47;5.00;;;;;;;;;;4932753;29;20490;-73
2022/08/14 18:42:17;;;;;;;9.03;4.80;;;;;;;;;;5130078;27;21155;-75
2022/08/14 18:44:59;;;;;;;4.80;4.40;;;;;;;;;;5086858;28;20479;-76
2022/08/14 18:47:27;;;;;;;6.50;5.13;;;;;;;;;;5095634;28;20445;-75
2022/08/14 18:50:05;;;;;;;5.50;4.80;;;;;;;;;;5105013;28;20427;-78
2022/08/14 18:52:47;;;;;;;5.00;4.50;;;;;;;;;;5106762;28;20453;-75
2022/08/14 18:55:29;;;;;;;6.27;5.33;;;;;;;;;;5087080;28;20475;-76
2022/08/14 18:58:11;;;;;;;5.60;5.10;;;;;;;;;;5087808;28;20435;-75
2022/08/14 19:00:54;;;;;;;7.90;7.10;;;;;;;;;;5073683;28;20865;-76
2022/08/14 19:03:36;;;;;;;7.93;7.20;;;;;;;;;;5073532;28;20481;-75
2022/08/14 19:06:06;;;;;;;8.40;7.60;;;;;;;;;;5089866;28;20467;-74
2022/08/14 19:08:37;;;;;;;8.17;7.37;;;;;;;;;;5072764;28;20940;-75
2022/08/14 19:11:06;;;;;;;6.37;5.77;;;;;;;;;;5093823;28;20923;-75
2022/08/14 19:13:35;;;;;;;6.10;5.57;;;;;;;;;;5104484;28;20431;-73
2022/08/14 19:16:06;;;;;;;7.00;5.27;;;;;;;;;;5087792;28;20463;-72
2022/08/14 19:18:35;;;;;;;5.83;5.33;;;;;;;;;;5094444;28;20446;-73
2022/08/14 19:21:04;;;;;;;6.83;5.00;;;;;;;;;;5108436;28;20466;-73
2022/08/14 19:23:33;;;;;;;5.17;4.77;;;;;;;;;;5089207;28;20435;-73
2022/08/14 19:26:01;;;;;;;5.67;4.83;;;;;;;;;;5077057;28;20827;-73
2022/08/14 19:28:30;;;;;;;5.13;4.63;;;;;;;;;;5090354;28;20526;-73
2022/08/14 19:31:12;;;;;;;6.03;5.53;;;;;;;;;;5072370;28;20810;-73
2022/08/14 19:33:54;;;;;;;5.40;5.00;;;;;;;;;;5101939;28;20435;-74
2022/08/14 19:36:21;;;;;;;5.50;5.00;;;;;;;;;;5088645;28;20541;-75
2022/08/14 19:38:53;;;;;;;5.10;4.67;;;;;;;;;;5107561;28;20774;-74
2022/08/14 19:41:21;;;;;;;5.80;5.27;;;;;;;;;;5107727;28;20522;-74
2022/08/14 19:43:49;;;;;;;5.67;5.17;;;;;;;;;;5090470;28;20464;-73
2022/08/14 19:46:21;;;;;;;6.20;5.60;;;;;;;;;;5108505;28;20503;-74
2022/08/14 19:48:50;;;;;;;6.53;5.93;;;;;;;;;;5089127;28;20458;-74
2022/08/14 19:51:17;;;;;;;7.30;5.37;;;;;;;;;;5090726;28;20439;-74
2022/08/14 19:53:54;;;;;;;6.10;5.50;;;;;;;;;;5095726;28;20439;-75
2022/08/14 19:56:21;;;;;;;5.67;5.27;;;;;;;;;;5071943;28;20474;-74
2022/08/14 19:58:49;;;;;;;6.60;6.00;;;;;;;;;;5090844;28;20431;-74
2022/08/14 20:01:24;;;;;;;5.93;5.43;;;;;;;;;;5076178;28;20569;-74
2022/08/14 20:03:52;;;;;;;5.97;5.47;;;;;;;;;;5094270;28;20439;-73
2022/08/14 20:06:20;;;;;;;6.63;6.13;;;;;;;;;;5094232;28;20463;-74
2022/08/14 20:08:51;;;;;;;5.63;5.13;;;;;;;;;;5094703;28;20969;-73
2022/08/14 20:11:28;;;;;;;6.40;5.60;;;;;;;;;;5094687;28;20447;-74
2022/08/14 20:13:58;;;;;;;7.73;5.60;;;;;;;;;;5096311;28;20482;-74
2022/08/14 20:16:29;;;;;;;6.50;5.90;;;;;;;;;;5094395;28;20455;-74
2022/08/14 20:18:57;;;;;;;6.60;6.00;;;;;;;;;;5089737;28;20518;-74
2022/08/14 20:21:24;;;;;;;7.13;6.23;;;;;;;;;;5090941;28;20479;-74
2022/08/14 20:24:07;;;;;;;7.10;6.40;;;;;;;;;;5093772;28;20431;-74
2022/08/14 20:26:41;;;;;;;7.17;6.47;;;;;;;;;;5077951;28;20455;-74
2022/08/14 20:29:08;;;;;;;7.67;7.00;;;;;;;;;;5093996;28;20431;-74
2022/08/14 20:31:36;;;;;;;7.70;7.00;;;;;;;;;;5094280;28;20451;-73
2022/08/14 20:34:04;;;;;;;7.00;6.20;;;;;;;;;;5077009;28;20546;-74
2022/08/14 20:36:32;;;;;;;6.33;5.73;;;;;;;;;;5077939;28;20478;-73
2022/08/14 20:38:59;;;;;;;6.07;5.53;;;;;;;;;;5092668;28;20466;-74
2022/08/14 20:41:26;;;;;;;6.90;6.20;;;;;;;;;;5088983;28;20487;-74
2022/08/14 20:46:38;;;;;;;7.20;6.50;;;;;;;;;;5092171;28;20445;-74
2022/08/14 20:49:07;;;;;;;7.33;6.20;;;;;;;;;;5093354;28;20470;-74
2022/08/14 20:51:38;;;;;;;6.63;6.03;;;;;;;;;;5075755;28;20539;-73
2022/08/14 20:54:07;;;;;;;6.37;5.80;;;;;;;;;;5093461;28;20443;-74
2022/08/14 20:56:35;;;;;;;7.00;6.40;;;;;;;;;;5094566;28;20451;-74
2022/08/14 20:59:14;;;;;;;6.33;5.73;;;;;;;;;;5095515;28;20621;-74
2022/08/14 21:01:43;;;;;;;5.80;5.30;;;;;;;;;;5072316;28;20489;-74
2022/08/14 21:04:25;;;;;;;6.60;6.00;;;;;;;;;;5069841;28;20428;-73
2022/08/14 21:06:53;;;;;;;8.60;6.27;;;;;;;;;;5076574;28;20779;-74
2022/08/14 21:09:22;;;;;;;7.40;5.97;;;;;;;;;;5092822;28;20451;-74
2022/08/14 21:11:49;;;;;;;7.07;6.37;;;;;;;;;;5092993;28;21021;-74
2022/08/14 21:14:18;;;;;;;7.87;7.07;;;;;;;;;;5093233;28;20443;-74
2022/08/14 21:16:47;;;;;;;7.20;6.50;;;;;;;;;;5092707;28;20498;-74
2022/08/14 21:19:14;;;;;;;8.07;7.27;;;;;;;;;;5095069;28;20854;-74
2022/08/14 21:21:44;;;;;;;7.60;6.17;;;;;;;;;;5094923;28;20536;-74
2022/08/14 21:24:12;;;;;;;7.47;6.43;;;;;;;;;;5071370;28;20435;-73
2022/08/14 21:26:40;;;;;;;6.83;6.17;;;;;;;;;;5088724;28;20430;-74
2022/08/14 21:29:10;;;;;;;6.27;5.77;;;;;;;;;;5091828;28;20986;-73
2022/08/14 21:31:37;;;;;;;7.03;6.43;;;;;;;;;;5092479;28;20783;-73
2022/08/14 21:34:06;;;;;;;6.30;5.80;;;;;;;;;;5092973;28;20435;-74
2022/08/14 21:36:35;;;;;;;6.47;5.87;;;;;;;;;;5092841;28;20463;-73
2022/08/14 21:39:02;;;;;;;8.93;6.57;;;;;;;;;;5092244;28;20427;-74
2022/08/14 21:41:31;;;;;;;6.50;6.00;;;;;;;;;;5076274;28;20506;-73
2022/08/14 21:44:04;;;;;;;6.50;5.80;;;;;;;;;;5094632;28;20435;-73
2022/08/14 21:46:35;;;;;;;7.13;6.47;;;;;;;;;;5088562;28;20463;-74
2022/08/14 21:49:02;;;;;;;8.20;7.07;;;;;;;;;;5088710;28;20444;-73
2022/08/14 21:51:31;;;;;;;6.37;5.87;;;;;;;;;;5091554;28;20518;-73
2022/08/14 21:54:00;;;;;;;6.33;5.83;;;;;;;;;;5091865;28;20788;-73
2022/08/14 21:56:27;;;;;;;6.70;6.07;;;;;;;;;;5092395;28;20963;-73
2022/08/14 21:58:55;;;;;;;6.37;5.80;;;;;;;;;;5092705;28;20475;-73
2022/08/14 22:01:22;;;;;;;6.80;6.00;;;;;;;;;;5091985;28;20478;-73
2022/08/14 22:03:49;;;;;;;6.77;6.07;;;;;;;;;;5094354;28;20851;-73
2022/08/14 22:06:17;;;;;;;7.30;6.70;;;;;;;;;;5093727;28;20465;-73
2022/08/14 22:08:46;;;;;;;10.23;7.00;;;;;;;;;;5087561;28;20908;-73
2022/08/14 22:11:13;;;;;;;6.30;5.70;;;;;;;;;;5088784;28;20428;-73
2022/08/14 22:13:40;;;;;;;7.20;6.50;;;;;;;;;;5091098;28;20446;-73
2022/08/14 22:16:08;;;;;;;6.40;5.90;;;;;;;;;;5091306;28;20471;-73
2022/08/14 22:18:35;;;;;;;5.83;5.33;;;;;;;;;;5092103;28;20439;-73
2022/08/14 22:21:03;;;;;;;6.23;5.73;;;;;;;;;;5091958;28;20482;-73
2022/08/14 22:23:30;;;;;;;6.40;5.80;;;;;;;;;;5074203;28;20534;-73
2022/08/14 22:25:59;;;;;;;7.03;6.43;;;;;;;;;;5093852;28;20465;-73
2022/08/14 22:28:28;;;;;;;6.00;5.50;;;;;;;;;;5093345;28;20443;-73
2022/08/14 22:30:56;;;;;;;6.80;5.90;;;;;;;;;;5087131;28;20908;-73
2022/08/14 22:33:25;;;;;;;6.97;6.37;;;;;;;;;;5088409;28;20471;-73
2022/08/14 22:35:52;;;;;;;5.60;5.20;;;;;;;;;;5090895;28;20542;-73
2022/08/14 22:38:19;;;;;;;6.17;5.57;;;;;;;;;;5091549;28;20445;-73
2022/08/14 22:40:47;;;;;;;7.50;6.20;;;;;;;;;;5091650;28;20455;-73
2022/08/14 22:43:16;;;;;;;6.40;5.90;;;;;;;;;;5074120;28;20439;-73
2022/08/14 22:45:43;;;;;;;6.50;6.00;;;;;;;;;;5092014;28;20478;-73
2022/08/14 22:48:10;;;;;;;6.33;5.70;;;;;;;;;;5093395;28;20862;-73
2022/08/14 22:50:40;;;;;;;7.00;6.40;;;;;;;;;;5092966;28;20439;-73
2022/08/14 22:53:08;;;;;;;5.80;5.30;;;;;;;;;;5087321;28;20946;-73
2022/08/14 22:55:35;;;;;;;6.20;5.60;;;;;;;;;;5069777;28;20494;-73
2022/08/14 22:58:02;;;;;;;7.47;5.37;;;;;;;;;;5091169;28;20439;-73
2022/08/14 23:00:31;;;;;;;5.77;5.27;;;;;;;;;;5091032;28;20435;-72
2022/08/14 23:03:00;;;;;;;6.23;5.63;;;;;;;;;;5091548;28;20482;-73
2022/08/14 23:05:27;;;;;;;6.43;5.80;;;;;;;;;;5091788;28;20892;-73
2022/08/14 23:07:54;;;;;;;6.63;6.10;;;;;;;;;;5091732;28;20551;-72
2022/08/14 23:10:22;;;;;;;6.47;5.97;;;;;;;;;;5093413;28;20450;-73
2022/08/14 23:12:50;;;;;;;6.50;5.97;;;;;;;;;;5092194;28;20432;-74
2022/08/14 23:15:19;;;;;;;5.90;5.40;;;;;;;;;;5086708;28;20456;-73
2022/08/14 23:17:47;;;;;;;6.60;6.00;;;;;;;;;;5087951;28;20443;-73
2022/08/14 23:20:15;;;;;;;6.47;5.97;;;;;;;;;;5091074;28;20447;-73
2022/08/14 23:22:43;;;;;;;6.53;5.90;;;;;;;;;;5090991;28;20482;-73
2022/08/14 23:25:12;;;;;;;6.90;6.30;;;;;;;;;;5091017;28;20968;-73
2022/08/14 23:27:40;;;;;;;6.60;6.00;;;;;;;;;;5093394;28;20982;-72
2022/08/14 23:30:12;;;;;;;6.97;6.37;;;;;;;;;;5095404;28;20455;-73
2022/08/14 23:32:39;;;;;;;5.60;5.10;;;;;;;;;;5063465;28;20538;-73
2022/08/14 23:35:08;;;;;;;6.57;5.10;;;;;;;;;;5094954;28;20550;-73
2022/08/14 23:37:35;;;;;;;6.43;5.93;;;;;;;;;;5090364;28;20435;-73
2022/08/14 23:40:03;;;;;;;5.50;5.00;;;;;;;;;;5091044;28;20454;-73
2022/08/14 23:42:30;;;;;;;6.93;6.33;;;;;;;;;;5094065;28;20847;-73
2022/08/14 23:44:58;;;;;;;5.70;5.23;;;;;;;;;;5094126;28;20974;-73
2022/08/14 23:47:25;;;;;;;7.70;5.50;;;;;;;;;;5094278;28;20447;-74
2022/08/14 23:49:53;;;;;;;6.47;5.97;;;;;;;;;;5094604;28;20435;-73
2022/08/14 23:52:21;;;;;;;6.30;5.70;;;;;;;;;;5094544;28;20463;-73
2022/08/14 23:54:49;;;;;;;6.30;5.80;;;;;;;;;;5096001;28;20450;-72
2022/08/14 23:57:16;;;;;;;7.90;6.10;;;;;;;;;;5094211;28;20530;-73
2022/08/14 23:59:43;;;;;;;6.60;6.00;;;;;;;;;;5090021;28;20432;-72
